Time;durP1;ratioP1;P1;durP2;ratioP2;P2;SDS_P1;SDS_P2;PMS_P1;PMS_P2;Temp;Humidity;BMP_temperature;BMP_pressure;BME280_temperature;BME280_humidity;BME280_pressure;Samples;Min_cycle;Max_cycle;Signal;HPM_P1;HPM_P2
2022/10/21 00:00:28;;;;;;;35.83;23.08;;;12.90;99.90;;;;;;4957918;28;20038;-75
2022/10/21 00:02:54;;;;;;;31.85;21.23;;;12.40;99.90;;;;;;4969653;28;20493;-75
2022/10/21 00:05:20;;;;;;;35.58;21.25;;;12.60;99.90;;;;;;4972229;28;20109;-77
2022/10/21 00:07:45;;;;;;;31.80;23.15;;;12.40;99.90;;;;;;4970087;28;20471;-77
2022/10/21 00:10:11;;;;;;;34.30;23.25;;;12.90;99.90;;;;;;4953515;28;20044;-75
2022/10/21 00:12:37;;;;;;;30.63;21.60;;;12.40;99.90;;;;;;4970270;28;20050;-76
2022/10/21 00:15:06;;;;;;;31.08;22.13;;;12.50;99.90;;;;;;4969613;28;20047;-75
2022/10/21 00:17:37;;;;;;;26.80;19.70;;;12.90;99.90;;;;;;4970870;28;20062;-74
2022/10/21 00:20:08;;;;;;;26.15;22.23;;;12.90;99.90;;;;;;4970125;28;20046;-77
2022/10/21 00:22:35;;;;;;;36.05;22.77;;;12.60;99.90;;;;;;4969408;28;20046;-77
2022/10/21 00:25:00;;;;;;;30.50;21.27;;;12.90;99.90;;;;;;4970270;28;20130;-75
2022/10/21 00:27:26;;;;;;;32.22;22.13;;;12.30;99.90;;;;;;4967923;28;20476;-76
2022/10/21 00:29:52;;;;;;;32.17;21.67;;;12.30;99.90;;;;;;4957866;28;20038;-75
2022/10/21 00:32:17;;;;;;;28.58;20.92;;;12.90;99.90;;;;;;4969257;28;20490;-76
2022/10/21 00:34:43;;;;;;;36.25;23.58;;;12.70;99.90;;;;;;4969107;28;20042;-76
2022/10/21 00:37:10;;;;;;;27.42;21.80;;;12.90;99.90;;;;;;4971222;28;20039;-76
2022/10/21 00:39:36;;;;;;;36.35;23.23;;;12.80;99.90;;;;;;4967423;28;20503;-76
2022/10/21 00:42:03;;;;;;;36.65;23.40;;;12.30;99.90;;;;;;4970074;28;20053;-74
2022/10/21 00:44:29;;;;;;;31.42;23.77;;;12.70;99.90;;;;;;4953835;28;20047;-76
2022/10/21 00:47:02;;;;;;;31.67;21.38;;;12.90;99.90;;;;;;4966617;28;20049;-75
2022/10/21 00:49:42;;;;;;;57.15;23.67;;;12.30;99.90;;;;;;4970143;28;20039;-74
2022/10/21 00:52:13;;;;;;;34.92;23.40;;;12.80;99.90;;;;;;4970305;28;20035;-75
2022/10/21 00:54:41;;;;;;;32.90;21.48;;;12.50;99.90;;;;;;4968611;28;20105;-75
2022/10/21 00:57:08;;;;;;;37.97;22.00;;;12.20;99.90;;;;;;4969304;28;20051;-76
2022/10/21 00:59:39;;;;;;;35.35;22.55;;;12.60;99.90;;;;;;4969107;28;20125;-77
2022/10/21 01:02:05;;;;;;;38.08;23.42;;;12.70;99.90;;;;;;4953645;28;20125;-76
2022/10/21 01:04:31;;;;;;;33.75;24.23;;;12.60;99.90;;;;;;4966559;28;20483;-76
2022/10/21 01:06:57;;;;;;;27.77;22.30;;;12.20;99.90;;;;;;4963573;28;20043;-74
2022/10/21 01:09:24;;;;;;;35.20;21.63;;;12.20;99.90;;;;;;4957674;28;20053;-75
2022/10/21 01:11:51;;;;;;;29.05;22.60;;;12.80;99.90;;;;;;4967817;28;20039;-75
2022/10/21 01:14:31;;;;;;;31.02;22.33;;;12.60;99.90;;;;;;4966941;28;20066;-75
2022/10/21 01:17:11;;;;;;;35.97;23.42;;;12.20;99.90;;;;;;4965527;28;20039;-74
2022/10/21 01:19:56;;;;;;;36.20;24.23;;;12.30;99.90;;;;;;4967574;28;20056;-75
2022/10/21 01:22:31;;;;;;;39.88;22.77;;;12.30;99.90;;;;;;4959518;28;20054;-78
2022/10/21 01:25:15;;;;;;;35.95;23.08;;;12.20;99.90;;;;;;4968440;28;20048;-75
2022/10/21 01:28:05;;;;;;;37.40;22.27;;;12.20;99.90;;;;;;4966048;28;20489;-74
2022/10/21 01:30:38;;;;;;;27.77;21.42;;;12.20;99.90;;;;;;4968410;28;20051;-76
2022/10/21 01:33:30;;;;;;;33.30;21.85;;;12.10;99.90;;;;;;4968822;28;20065;-74
2022/10/21 01:36:14;;;;;;;35.28;22.80;;;12.10;99.90;;;;;;4965046;28;20055;-75
2022/10/21 01:38:54;;;;;;;33.65;23.13;;;12.50;99.90;;;;;;4967775;28;20055;-76
2022/10/21 01:41:35;;;;;;;34.37;24.53;;;12.10;99.90;;;;;;4967595;28;20051;-74
2022/10/21 01:44:25;;;;;;;35.13;24.02;;;12.80;99.90;;;;;;4967385;28;20057;-74
2022/10/21 01:47:15;;;;;;;43.42;23.45;;;12.80;99.90;;;;;;4968715;28;20413;-76
2022/10/21 01:49:53;;;;;;;33.83;23.00;;;12.90;99.90;;;;;;4968339;28;20043;-75
2022/10/21 01:52:19;;;;;;;31.42;21.02;;;12.80;99.90;;;;;;4965650;28;20059;-76
2022/10/21 01:54:59;;;;;;;35.85;23.63;;;12.30;99.90;;;;;;4966448;28;20043;-75
2022/10/21 01:57:29;;;;;;;31.35;22.90;;;12.80;99.90;;;;;;4967982;28;20051;-75
2022/10/21 01:59:58;;;;;;;37.00;25.40;;;12.50;99.90;;;;;;4967980;28;20077;-76
2022/10/21 02:02:29;;;;;;;35.13;24.33;;;12.40;99.90;;;;;;4965987;28;20422;-74
2022/10/21 02:04:56;;;;;;;36.33;24.98;;;12.50;99.90;;;;;;4969989;28;20061;-73
2022/10/21 02:07:22;;;;;;;34.47;22.45;;;12.50;99.90;;;;;;4966673;28;20047;-75
2022/10/21 02:09:48;;;;;;;34.97;21.85;;;12.70;99.90;;;;;;4965324;28;20102;-76
2022/10/21 02:12:15;;;;;;;36.65;23.80;;;12.40;99.90;;;;;;4967090;28;20409;-76
2022/10/21 02:14:45;;;;;;;35.50;22.98;;;13.10;99.90;;;;;;4967767;28;20043;-75
2022/10/21 02:17:15;;;;;;;32.83;23.77;;;13.10;99.90;;;;;;4970123;28;20047;-75
2022/10/21 02:19:42;;;;;;;38.53;23.15;;;12.60;99.90;;;;;;4962055;28;20047;-76
2022/10/21 02:22:11;;;;;;;36.45;23.90;;;12.60;99.90;;;;;;4965449;28;20035;-75
2022/10/21 02:24:52;;;;;;;37.20;24.37;;;13.20;99.90;;;;;;4947773;29;20106;-75
2022/10/21 02:27:18;;;;;;;37.78;22.90;;;13.00;99.90;;;;;;4965276;28;20078;-75
2022/10/21 02:29:47;;;;;;;47.83;23.88;;;12.80;99.90;;;;;;4964419;28;20035;-74
2022/10/21 02:32:36;;;;;;;38.22;23.63;;;13.30;99.90;;;;;;4968257;28;20073;-75
2022/10/21 02:35:13;;;;;;;38.60;22.58;;;13.30;99.90;;;;;;4968761;28;20056;-75
2022/10/21 02:37:50;;;;;;;34.83;24.00;;;13.40;99.90;;;;;;4948792;29;20403;-75
2022/10/21 02:40:27;;;;;;;59.25;25.90;;;13.30;99.90;;;;;;4957249;28;20501;-73
2022/10/21 02:43:04;;;;;;;76.22;25.90;;;13.20;99.90;;;;;;4963440;28;20042;-77
2022/10/21 02:45:32;;;;;;;40.35;23.20;;;12.90;99.90;;;;;;4956754;28;20053;-76
2022/10/21 02:47:58;;;;;;;37.67;22.85;;;13.00;99.90;;;;;;4950075;28;20050;-75
2022/10/21 02:50:24;;;;;;;48.13;25.77;;;13.70;99.90;;;;;;4967172;28;20117;-76
2022/10/21 02:52:50;;;;;;;49.75;24.52;;;13.60;99.90;;;;;;4967298;28;20443;-75
2022/10/21 02:55:15;;;;;;;57.42;24.48;;;13.50;99.90;;;;;;4966784;28;20122;-75
2022/10/21 02:57:41;;;;;;;41.38;21.45;;;13.00;99.90;;;;;;4967554;28;20398;-76
2022/10/21 03:00:07;;;;;;;36.83;20.17;;;14.00;99.90;;;;;;4968018;28;20122;-75
2022/10/21 03:02:33;;;;;;;36.50;20.52;;;13.40;99.90;;;;;;4969138;28;20414;-75
2022/10/21 03:04:59;;;;;;;34.10;17.27;;;14.00;99.90;;;;;;4968574;28;20053;-75
2022/10/21 03:07:24;;;;;;;34.45;16.80;;;14.00;99.90;;;;;;4968130;28;20073;-75
2022/10/21 03:09:50;;;;;;;28.45;17.40;;;13.50;99.90;;;;;;4971869;28;20050;-75
2022/10/21 03:12:16;;;;;;;28.77;17.88;;;14.00;99.90;;;;;;4972048;28;20393;-76
2022/10/21 03:14:41;;;;;;;45.58;20.00;;;14.30;99.90;;;;;;4967782;28;20485;-74
2022/10/21 03:17:07;;;;;;;38.65;20.20;;;14.30;99.90;;;;;;4970297;28;20046;-74
2022/10/21 03:19:33;;;;;;;34.83;17.85;;;14.10;99.90;;;;;;4970872;28;20062;-76
2022/10/21 03:21:58;;;;;;;34.97;17.80;;;14.40;99.90;;;;;;4971663;28;20057;-75
2022/10/21 03:24:24;;;;;;;27.33;15.90;;;14.40;99.90;;;;;;4966316;28;20078;-74
2022/10/21 03:26:50;;;;;;;31.52;16.08;;;13.60;99.90;;;;;;4972935;28;20035;-76
2022/10/21 03:29:16;;;;;;;29.38;14.30;;;14.30;99.90;;;;;;4949755;28;20574;-75
2022/10/21 03:31:41;;;;;;;21.88;13.85;;;14.50;99.90;;;;;;4955765;28;20513;-75
2022/10/21 03:34:07;;;;;;;29.75;17.35;;;14.20;99.90;;;;;;4969079;28;20101;-78
2022/10/21 03:36:33;;;;;;;30.23;16.05;;;14.10;99.90;;;;;;4966704;28;20449;-76
2022/10/21 03:38:58;;;;;;;24.13;15.15;;;13.60;99.90;;;;;;4970408;28;20038;-75
2022/10/21 03:41:24;;;;;;;31.02;16.98;;;13.80;99.90;;;;;;4972234;28;20039;-75
2022/10/21 03:43:49;;;;;;;28.10;16.35;;;14.30;99.90;;;;;;4962943;28;20240;-74
2022/10/21 03:46:15;;;;;;;34.75;17.65;;;14.30;99.90;;;;;;4968238;28;20042;-74
2022/10/21 03:48:41;;;;;;;25.02;15.57;;;14.30;99.90;;;;;;4967809;28;20052;-76
2022/10/21 03:51:06;;;;;;;26.25;16.08;;;13.90;99.90;;;;;;4968067;28;20113;-77
2022/10/21 03:53:32;;;;;;;29.15;17.25;;;14.30;99.90;;;;;;4968108;28;20049;-76
2022/10/21 03:55:58;;;;;;;30.02;17.98;;;13.80;99.90;;;;;;4971347;28;20065;-75
2022/10/21 03:58:24;;;;;;;29.42;18.27;;;13.50;99.90;;;;;;4970465;28;20074;-75
2022/10/21 04:00:53;;;;;;;25.05;18.58;;;13.30;99.90;;;;;;4971414;28;20039;-75
2022/10/21 04:03:20;;;;;;;30.60;20.03;;;14.10;99.90;;;;;;4970432;28;20046;-76
2022/10/21 04:05:45;;;;;;;35.72;19.98;;;13.40;99.90;;;;;;4967371;28;20306;-76
2022/10/21 04:08:11;;;;;;;33.80;20.83;;;14.10;99.90;;;;;;4968888;28;20051;-74
2022/10/21 04:10:37;;;;;;;38.78;22.48;;;13.30;99.90;;;;;;4972261;28;20050;-75
2022/10/21 04:13:02;;;;;;;32.65;20.42;;;13.80;99.90;;;;;;4971031;28;20042;-73
2022/10/21 04:15:28;;;;;;;37.58;21.20;;;13.90;99.90;;;;;;4953069;28;20039;-75
2022/10/21 04:17:54;;;;;;;32.22;22.70;;;13.20;99.90;;;;;;4965018;28;20516;-75
2022/10/21 04:20:20;;;;;;;40.97;22.52;;;13.60;99.90;;;;;;4961784;28;20051;-75
2022/10/21 04:22:45;;;;;;;35.38;23.17;;;13.80;99.90;;;;;;4952722;28;20379;-75
2022/10/21 04:25:11;;;;;;;40.58;25.33;;;13.60;99.90;;;;;;4970568;28;20047;-73
2022/10/21 04:27:37;;;;;;;35.92;22.90;;;13.80;99.90;;;;;;4970775;28;20042;-76
2022/10/21 04:30:04;;;;;;;43.75;24.55;;;13.20;99.90;;;;;;4951722;28;20105;-74
2022/10/21 04:32:29;;;;;;;38.58;23.42;;;13.60;99.90;;;;;;4971240;28;20047;-75
2022/10/21 04:34:55;;;;;;;41.47;23.70;;;13.20;99.90;;;;;;4969401;28;20506;-74
2022/10/21 04:37:20;;;;;;;36.47;22.38;;;13.30;99.90;;;;;;4958705;28;20078;-75
2022/10/21 04:39:46;;;;;;;35.55;22.55;;;13.00;99.90;;;;;;4961824;28;20093;-74
2022/10/21 04:42:12;;;;;;;40.53;24.25;;;13.30;99.90;;;;;;4965685;28;20166;-74
2022/10/21 04:44:38;;;;;;;46.22;25.48;;;13.30;99.90;;;;;;4969263;28;20057;-74
2022/10/21 04:47:04;;;;;;;41.95;24.10;;;13.60;99.90;;;;;;4970749;28;20078;-75
2022/10/21 04:49:30;;;;;;;36.22;21.20;;;12.90;99.90;;;;;;4968512;28;20070;-74
2022/10/21 04:51:56;;;;;;;46.85;25.83;;;12.90;99.90;;;;;;4968772;28;20051;-73
2022/10/21 04:54:21;;;;;;;40.95;23.60;;;13.30;99.90;;;;;;4967154;28;20557;-75
2022/10/21 04:56:47;;;;;;;41.05;23.88;;;13.50;99.90;;;;;;4970182;28;20322;-74
2022/10/21 04:59:13;;;;;;;34.72;21.45;;;13.70;99.90;;;;;;4968939;28;20409;-73
2022/10/21 05:01:39;;;;;;;39.88;24.40;;;13.70;99.90;;;;;;4966577;28;20533;-74
2022/10/21 05:04:04;;;;;;;43.00;25.25;;;13.60;99.90;;;;;;4968254;28;20059;-75
2022/10/21 05:06:30;;;;;;;45.75;25.23;;;12.90;99.90;;;;;;4968318;28;20453;-75
2022/10/21 05:08:56;;;;;;;41.33;24.02;;;13.10;99.90;;;;;;4954864;28;20124;-75
2022/10/21 05:11:22;;;;;;;47.22;27.58;;;13.00;99.90;;;;;;4959204;28;20074;-75
2022/10/21 05:13:47;;;;;;;38.90;23.17;;;13.50;99.90;;;;;;4960562;28;20528;-76
2022/10/21 05:16:13;;;;;;;48.55;27.98;;;12.80;99.90;;;;;;4964599;28;20109;-74
2022/10/21 05:18:39;;;;;;;44.83;24.83;;;12.80;99.90;;;;;;4952207;28;20046;-75
2022/10/21 05:21:04;;;;;;;43.10;26.15;;;12.80;99.90;;;;;;4969875;28;20088;-76
2022/10/21 05:23:30;;;;;;;56.97;26.42;;;13.30;99.90;;;;;;4967748;28;20444;-74
2022/10/21 05:25:56;;;;;;;53.78;28.20;;;13.30;99.90;;;;;;4969678;28;20051;-76
2022/10/21 05:28:22;;;;;;;46.65;27.15;;;13.30;99.90;;;;;;4966568;28;20051;-75
2022/10/21 05:30:48;;;;;;;47.55;24.77;;;12.70;99.90;;;;;;4967008;28;20046;-76
2022/10/21 05:33:14;;;;;;;42.80;26.00;;;12.80;99.90;;;;;;4967570;28;20081;-74
2022/10/21 05:35:40;;;;;;;53.65;28.35;;;13.20;99.90;;;;;;4951690;28;20043;-74
2022/10/21 05:38:06;;;;;;;46.55;25.73;;;12.70;99.90;;;;;;4952870;28;20406;-76
2022/10/21 05:40:32;;;;;;;46.78;25.48;;;12.80;99.90;;;;;;4953307;28;20405;-75
2022/10/21 05:42:58;;;;;;;57.90;29.48;;;12.80;99.90;;;;;;4962081;28;20091;-74
2022/10/21 05:45:23;;;;;;;43.30;26.13;;;13.10;99.90;;;;;;4967194;28;20576;-75
2022/10/21 05:47:49;;;;;;;44.40;26.17;;;13.30;99.90;;;;;;4967547;28;20043;-76
2022/10/21 05:50:15;;;;;;;52.08;29.30;;;12.70;99.90;;;;;;4961912;28;20039;-75
2022/10/21 05:52:41;;;;;;;45.58;26.17;;;12.70;99.90;;;;;;4958511;28;20054;-75
2022/10/21 05:55:08;;;;;;;55.38;29.65;;;13.00;99.90;;;;;;4956171;28;20039;-75
2022/10/21 05:57:35;;;;;;;61.65;29.48;;;12.60;99.90;;;;;;4970666;28;20520;-75
2022/10/21 06:00:02;;;;;;;51.83;26.25;;;13.10;99.90;;;;;;4971827;28;20465;-74
2022/10/21 06:02:28;;;;;;;48.40;26.98;;;13.10;99.90;;;;;;4969854;28;20142;-74
2022/10/21 06:04:55;;;;;;;47.53;27.65;;;13.30;99.90;;;;;;4970840;28;20074;-74
2022/10/21 06:07:20;;;;;;;53.58;29.02;;;12.90;99.90;;;;;;4968527;28;20117;-74
2022/10/21 06:09:46;;;;;;;48.30;27.70;;;12.60;99.90;;;;;;4971399;28;20181;-74
2022/10/21 06:12:12;;;;;;;56.97;28.33;;;12.60;99.90;;;;;;4969705;28;20399;-77
2022/10/21 06:14:37;;;;;;;54.03;29.60;;;13.10;99.90;;;;;;4966573;28;20039;-74
2022/10/21 06:17:04;;;;;;;52.47;28.67;;;12.60;99.90;;;;;;4949174;28;20058;-75
2022/10/21 06:19:30;;;;;;;51.47;28.27;;;13.20;99.90;;;;;;4965453;28;20039;-74
2022/10/21 06:21:58;;;;;;;48.85;27.38;;;12.70;99.90;;;;;;4967385;28;20043;-75
2022/10/21 06:24:24;;;;;;;52.08;28.58;;;13.00;99.90;;;;;;4967171;28;20057;-75
2022/10/21 06:26:50;;;;;;;56.72;31.40;;;13.20;99.90;;;;;;4963803;28;20126;-75
2022/10/21 06:29:17;;;;;;;52.42;30.55;;;12.80;99.90;;;;;;4949940;28;20049;-75
2022/10/21 06:31:43;;;;;;;55.38;27.88;;;13.20;99.90;;;;;;4969086;28;20106;-75
2022/10/21 06:34:09;;;;;;;47.47;27.67;;;13.10;99.90;;;;;;4959456;28;20450;-75
2022/10/21 06:36:37;;;;;;;55.08;28.13;;;13.20;99.90;;;;;;4969366;28;20057;-75
2022/10/21 06:39:03;;;;;;;54.95;29.65;;;12.50;99.90;;;;;;4963518;28;20348;-76
2022/10/21 06:41:29;;;;;;;63.25;30.15;;;12.90;99.90;;;;;;4966189;28;20042;-75
2022/10/21 06:43:55;;;;;;;55.00;30.17;;;12.40;99.90;;;;;;4962453;28;20525;-75
2022/10/21 06:46:21;;;;;;;51.53;28.00;;;13.10;99.90;;;;;;4966308;28;20054;-74
2022/10/21 06:48:46;;;;;;;52.90;27.48;;;13.10;99.90;;;;;;4966010;28;20042;-74
2022/10/21 06:51:15;;;;;;;53.17;28.02;;;12.80;99.90;;;;;;4964882;28;20397;-76
2022/10/21 06:53:42;;;;;;;57.53;30.98;;;13.00;99.90;;;;;;4967362;28;20039;-75
2022/10/21 06:56:13;;;;;;;48.92;27.63;;;12.50;99.90;;;;;;4965990;28;20042;-75
2022/10/21 06:58:42;;;;;;;49.30;28.15;;;12.40;99.90;;;;;;4965289;28;20066;-74
2022/10/21 07:01:09;;;;;;;52.85;26.45;;;12.40;99.90;;;;;;4963021;28;20065;-75
2022/10/21 07:03:35;;;;;;;47.70;27.58;;;12.40;99.90;;;;;;4945191;28;20051;-75
2022/10/21 07:06:01;;;;;;;48.75;26.70;;;12.80;99.90;;;;;;4959064;28;21154;-75
2022/10/21 07:08:29;;;;;;;45.00;27.10;;;12.40;99.90;;;;;;4947601;28;20403;-75
2022/10/21 07:10:55;;;;;;;56.30;27.52;;;12.60;99.90;;;;;;4966206;28;20047;-75
2022/10/21 07:13:22;;;;;;;58.65;28.10;;;12.90;99.90;;;;;;4956368;28;20054;-74
2022/10/21 07:15:56;;;;;;;62.10;28.27;;;12.50;99.90;;;;;;4961091;28;20035;-75
2022/10/21 07:18:22;;;;;;;50.42;27.70;;;12.90;99.90;;;;;;4967582;28;20406;-77
2022/10/21 07:20:48;;;;;;;47.97;28.05;;;12.80;99.90;;;;;;4965399;28;20039;-77
2022/10/21 07:23:13;;;;;;;48.05;26.13;;;12.60;99.90;;;;;;4965708;28;20054;-77
2022/10/21 07:25:39;;;;;;;45.90;25.75;;;12.50;99.90;;;;;;4968901;28;20035;-78
2022/10/21 07:28:05;;;;;;;41.63;25.58;;;12.90;99.90;;;;;;4966385;28;20375;-76
2022/10/21 07:30:30;;;;;;;57.20;28.83;;;13.20;99.90;;;;;;4964625;28;20106;-79
2022/10/21 07:32:56;;;;;;;52.33;27.73;;;12.70;99.90;;;;;;4961719;28;20067;-77
2022/10/21 07:35:22;;;;;;;41.70;25.55;;;13.20;99.90;;;;;;4960702;28;20122;-74
2022/10/21 07:37:48;;;;;;;44.13;26.85;;;12.90;99.90;;;;;;4957008;28;20123;-74
2022/10/21 07:40:14;;;;;;;45.30;25.83;;;13.00;99.90;;;;;;4961496;28;20069;-76
2022/10/21 07:42:42;;;;;;;60.35;27.40;;;12.70;99.90;;;;;;4962259;28;20041;-76
2022/10/21 07:45:08;;;;;;;42.85;27.05;;;12.60;99.90;;;;;;4967111;28;20054;-76
2022/10/21 07:47:34;;;;;;;51.38;26.27;;;13.20;99.90;;;;;;4966743;28;20034;-76
2022/10/21 07:50:00;;;;;;;41.42;25.75;;;12.70;99.90;;;;;;4962184;28;20047;-76
2022/10/21 07:52:26;;;;;;;45.95;25.05;;;13.00;99.90;;;;;;4963930;28;20066;-78
2022/10/21 07:54:52;;;;;;;50.22;25.52;;;12.70;99.90;;;;;;4962935;28;20755;-78
2022/10/21 07:57:17;;;;;;;43.97;25.17;;;13.10;99.90;;;;;;4965925;28;20043;-76
2022/10/21 07:59:43;;;;;;;44.90;26.60;;;12.90;99.90;;;;;;4966120;28;20386;-77
2022/10/21 08:02:13;;;;;;;41.38;25.70;;;12.70;99.90;;;;;;4966730;28;20039;-77
2022/10/21 08:04:39;;;;;;;43.80;25.88;;;12.80;99.90;;;;;;4966799;28;20059;-77
2022/10/21 08:07:04;;;;;;;44.58;25.75;;;13.20;99.90;;;;;;4963013;28;20047;-76
2022/10/21 08:09:30;;;;;;;40.42;25.15;;;13.40;99.90;;;;;;4964816;28;20043;-76
2022/10/21 08:11:56;;;;;;;39.70;23.13;;;12.90;99.90;;;;;;4963889;28;20078;-76
2022/10/21 08:14:22;;;;;;;37.25;24.10;;;13.50;99.90;;;;;;4965662;28;20409;-77
2022/10/21 08:16:53;;;;;;;44.65;26.45;;;13.20;99.90;;;;;;4962112;28;20126;-77
2022/10/21 08:19:20;;;;;;;45.55;26.98;;;13.30;99.90;;;;;;4957894;28;20046;-77
2022/10/21 08:21:46;;;;;;;39.28;23.95;;;12.80;99.90;;;;;;4961514;28;20066;-77
2022/10/21 08:24:12;;;;;;;46.50;26.88;;;13.40;99.90;;;;;;4970699;28;20034;-75
2022/10/21 08:26:37;;;;;;;43.60;26.77;;;13.50;99.90;;;;;;4964589;28;20066;-76
2022/10/21 08:29:03;;;;;;;47.13;25.15;;;13.50;99.90;;;;;;4951759;28;20109;-76
2022/10/21 08:31:30;;;;;;;37.33;23.15;;;13.20;99.90;;;;;;4969593;28;20482;-75
2022/10/21 08:33:55;;;;;;;40.67;24.90;;;13.00;99.90;;;;;;4969332;28;20082;-77
2022/10/21 08:36:24;;;;;;;42.78;25.35;;;13.20;99.90;;;;;;4969840;28;20449;-75
2022/10/21 08:38:51;;;;;;;45.53;27.63;;;13.20;99.90;;;;;;4959235;28;20403;-76
2022/10/21 08:41:25;;;;;;;44.15;25.88;;;13.80;99.90;;;;;;4970563;28;20089;-76
2022/10/21 08:43:53;;;;;;;34.42;22.73;;;13.90;99.90;;;;;;4970010;28;20416;-76
2022/10/21 08:46:28;;;;;;;36.10;22.33;;;13.30;99.90;;;;;;4969470;28;20054;-75
2022/10/21 08:49:01;;;;;;;40.67;24.95;;;13.10;99.90;;;;;;4963671;28;20039;-77
2022/10/21 08:51:33;;;;;;;60.70;25.20;;;13.90;99.90;;;;;;4963147;28;20050;-76
2022/10/21 08:54:04;;;;;;;43.35;24.77;;;13.30;99.90;;;;;;4968932;28;20047;-76
2022/10/21 08:56:31;;;;;;;39.63;20.85;;;13.90;99.90;;;;;;4964704;28;20073;-76
2022/10/21 08:58:57;;;;;;;40.33;24.05;;;13.40;99.90;;;;;;4970869;28;20038;-75
2022/10/21 09:01:46;;;;;;;34.33;21.00;;;14.10;99.90;;;;;;4967969;28;20058;-75
2022/10/21 09:04:25;;;;;;;42.22;22.80;;;14.30;99.90;;;;;;4951323;28;20062;-77
2022/10/21 09:06:56;;;;;;;36.05;22.95;;;13.60;99.90;;;;;;4968372;28;20058;-76
2022/10/21 09:09:52;;;;;;;28.08;19.92;;;14.20;99.90;;;;;;4968573;28;20054;-76
2022/10/21 09:12:49;;;;;;;32.42;21.50;;;14.40;99.90;;;;;;4964421;28;20051;-73
2022/10/21 09:15:30;;;;;;;32.55;19.30;;;14.00;99.90;;;;;;4971500;28;20050;-73
2022/10/21 09:18:11;;;;;;;37.88;19.95;;;14.00;99.90;;;;;;4961429;28;20055;-74
2022/10/21 09:20:55;;;;;;;31.90;17.85;;;14.10;99.90;;;;;;4970206;28;20085;-72
2022/10/21 09:23:42;;;;;;;34.60;21.08;;;14.00;99.90;;;;;;4965541;28;20556;-74
2022/10/21 09:26:35;;;;;;;26.75;16.67;;;14.90;99.90;;;;;;4964912;28;20042;-73
2022/10/21 09:29:21;;;;;;;26.83;17.38;;;14.80;99.90;;;;;;4953931;28;20138;-76
2022/10/21 09:31:47;;;;;;;28.98;16.13;;;14.40;99.90;;;;;;4961874;28;20055;-79
2022/10/21 09:34:32;;;;;;;28.52;17.85;;;14.20;99.90;;;;;;4969644;28;20046;-75
2022/10/21 09:36:59;;;;;;;25.38;16.40;;;14.20;99.90;;;;;;4971206;28;20057;-79
2022/10/21 09:40:01;;;;;;;20.25;15.10;;;14.30;99.90;;;;;;4953372;28;20070;-77
2022/10/21 09:42:27;;;;;;;26.98;16.40;;;15.00;99.90;;;;;;4964025;28;20090;-79
2022/10/21 09:44:53;;;;;;;26.58;17.00;;;15.00;99.90;;;;;;4970091;28;20117;-76
2022/10/21 09:47:22;;;;;;;18.98;14.90;;;14.80;99.90;;;;;;4970701;28;20046;-77
2022/10/21 09:49:55;;;;;;;23.10;15.88;;;15.30;99.90;;;;;;4968987;28;20076;-76
2022/10/21 09:52:25;;;;;;;23.25;15.68;;;14.60;99.90;;;;;;4962502;28;20046;-77
2022/10/21 09:54:51;;;;;;;;;;;14.70;99.90;;;;;;4971870;28;20089;-76
2022/10/21 09:57:22;;;;;;;23.80;13.38;;;15.10;99.90;;;;;;4969621;28;19921;-76
2022/10/21 09:59:55;;;;;;;20.77;15.20;;;14.60;99.90;;;;;;4970332;28;20046;-77
2022/10/21 10:02:34;;;;;;;23.15;14.48;;;15.50;99.90;;;;;;4970426;28;20057;-78
2022/10/21 10:05:00;;;;;;;17.08;13.60;;;15.30;99.90;;;;;;4971618;28;20093;-78
2022/10/21 10:07:26;;;;;;;23.33;15.15;;;14.90;99.90;;;;;;4969253;28;20388;-79
2022/10/21 10:09:52;;;;;;;16.10;13.15;;;15.10;99.90;;;;;;4969920;28;20070;-78
2022/10/21 10:12:23;;;;;;;19.90;12.65;;;15.50;99.90;;;;;;4970810;28;20047;-77
2022/10/21 10:14:49;;;;;;;22.98;13.05;;;14.70;99.90;;;;;;4969528;28;20450;-77
2022/10/21 10:17:36;;;;;;;24.13;13.50;;;14.90;99.90;;;;;;4956314;28;20070;-78
2022/10/21 10:20:07;;;;;;;19.70;13.10;;;14.90;99.90;;;;;;4952275;28;20157;-77
2022/10/21 10:22:34;;;;;;;19.27;12.43;;;15.50;99.90;;;;;;4968465;28;20348;-78
2022/10/21 10:25:27;;;;;;;15.40;12.80;;;15.40;99.90;;;;;;4970831;28;20907;-76
2022/10/21 10:28:00;;;;;;;17.85;12.68;;;15.70;99.90;;;;;;4956002;28;20047;-78
2022/10/21 10:30:35;;;;;;;19.95;12.68;;;15.00;99.90;;;;;;4968849;28;20570;-75
2022/10/21 10:33:17;;;;;;;16.73;10.77;;;15.20;99.90;;;;;;4962509;28;20065;-76
2022/10/21 10:35:49;;;;;;;15.85;11.25;;;15.10;99.90;;;;;;4970456;28;20039;-75
2022/10/21 10:38:29;;;;;;;24.48;11.88;;;15.90;99.90;;;;;;4969615;28;20082;-78
2022/10/21 10:41:14;;;;;;;22.15;12.10;;;16.00;99.90;;;;;;4968718;28;20074;-76
2022/10/21 10:43:54;;;;;;;14.45;11.63;;;15.30;99.90;;;;;;4969655;28;20125;-75
2022/10/21 10:46:29;;;;;;;16.77;11.43;;;15.80;99.90;;;;;;4951104;28;20137;-74
2022/10/21 10:48:58;;;;;;;17.95;10.75;;;16.00;99.90;;;;;;4969506;28;20050;-76
2022/10/21 10:51:29;;;;;;;13.05;11.32;;;16.10;99.90;;;;;;4967405;28;20089;-74
2022/10/21 10:54:18;;;;;;;13.93;10.00;;;15.30;99.90;;;;;;4970586;28;20043;-73
2022/10/21 10:56:49;;;;;;;15.68;9.48;;;15.30;99.90;;;;;;4968209;28;20035;-78
2022/10/21 10:59:20;;;;;;;20.45;10.45;;;16.10;99.90;;;;;;4961115;28;20043;-75
2022/10/21 11:02:08;;;;;;;13.65;9.80;;;15.30;99.90;;;;;;4968828;28;20119;-75
2022/10/21 11:04:55;;;;;;;12.75;10.38;;;15.30;99.90;;;;;;4970452;28;20051;-79
2022/10/21 11:07:33;;;;;;;18.73;9.00;;;15.90;99.90;;;;;;4951903;28;20138;-78
2022/10/21 11:10:07;;;;;;;18.20;10.60;;;15.80;99.90;;;;;;4968966;28;20043;-78
2022/10/21 11:12:33;;;;;;;15.00;9.57;;;16.00;99.90;;;;;;4952471;28;20378;-77
2022/10/21 11:14:59;;;;;;;12.57;9.50;;;16.00;99.90;;;;;;4962433;28;20050;-76
2022/10/21 11:17:36;;;;;;;15.57;11.30;;;15.90;99.90;;;;;;4963486;28;20049;-76
2022/10/21 11:20:05;;;;;;;14.18;10.02;;;15.70;99.90;;;;;;4950506;28;20059;-77
2022/10/21 11:22:49;;;;;;;16.38;9.73;;;16.10;99.90;;;;;;4966486;28;20433;-79
2022/10/21 11:25:32;;;;;;;14.80;8.95;;;15.60;99.90;;;;;;4968792;28;20055;-76
2022/10/21 11:28:38;;;;;;;11.70;8.40;;;16.10;99.90;;;;;;4963468;28;20046;-77
2022/10/21 11:31:19;;;;;;;14.80;8.48;;;16.20;99.90;;;;;;4968337;28;20058;-75
2022/10/21 11:33:48;;;;;;;19.23;10.30;;;16.10;99.90;;;;;;4973178;28;20387;-75
2022/10/21 11:36:30;;;;;;;13.77;8.10;;;16.10;99.90;;;;;;4966764;28;20046;-76
2022/10/21 11:39:08;;;;;;;12.43;8.23;;;15.70;99.90;;;;;;4955387;28;20061;-77
2022/10/21 11:41:38;;;;;;;24.38;8.82;;;16.10;99.90;;;;;;4968869;28;20042;-75
2022/10/21 11:44:04;;;;;;;13.15;9.18;;;15.90;99.90;;;;;;4973474;28;20347;-75
2022/10/21 11:46:56;;;;;;;14.35;9.40;;;16.40;99.90;;;;;;4972023;28;20043;-75
2022/10/21 11:49:32;;;;;;;17.50;9.20;;;15.80;99.90;;;;;;4932715;28;20145;-76
2022/10/21 11:52:01;;;;;;;14.30;7.95;;;16.00;99.90;;;;;;4967127;28;20042;-77
2022/10/21 11:54:58;;;;;;;11.10;8.38;;;15.70;99.90;;;;;;4971750;28;20051;-76
2022/10/21 11:57:32;;;;;;;14.13;9.32;;;16.50;99.90;;;;;;4970772;28;20407;-76
2022/10/21 12:00:24;;;;;;;11.07;7.78;;;15.70;99.90;;;;;;4954337;28;20129;-75
2022/10/21 12:02:56;;;;;;;14.55;7.10;;;15.80;99.90;;;;;;4971100;28;20049;-77
2022/10/21 12:05:32;;;;;;;14.80;7.28;;;16.20;99.90;;;;;;4955318;28;20453;-74
2022/10/21 12:08:31;;;;;;;13.48;8.27;;;16.00;99.90;;;;;;4970413;28;20094;-76
2022/10/21 12:11:05;;;;;;;11.73;6.90;;;16.20;99.90;;;;;;4971554;28;20050;-76
2022/10/21 12:13:43;;;;;;;15.98;7.35;;;15.80;99.90;;;;;;4953321;28;21000;-77
2022/10/21 12:16:12;;;;;;;11.70;6.57;;;16.50;99.90;;;;;;4969872;28;20070;-76
2022/10/21 12:18:54;;;;;;;13.02;7.90;;;16.20;99.90;;;;;;4971433;28;20039;-77
2022/10/21 12:21:24;;;;;;;8.48;6.40;;;16.00;99.90;;;;;;4967903;28;20051;-75
2022/10/21 12:24:03;;;;;;;15.50;7.43;;;16.10;99.90;;;;;;4972490;28;20047;-77
2022/10/21 12:26:55;;;;;;;16.40;8.15;;;16.40;99.90;;;;;;4971654;28;20473;-78
2022/10/21 12:29:32;;;;;;;10.25;7.70;;;16.20;99.90;;;;;;4968482;28;20126;-77
2022/10/21 12:32:04;;;;;;;10.68;6.03;;;15.90;99.90;;;;;;4961803;28;20470;-77
2022/10/21 12:34:31;;;;;;;12.73;6.55;;;16.60;99.90;;;;;;4967744;28;20552;-76
2022/10/21 12:36:57;;;;;;;13.10;8.25;;;16.50;99.90;;;;;;4963922;28;20091;-77
2022/10/21 12:39:32;;;;;;;12.77;6.72;;;16.60;99.90;;;;;;4971054;28;20046;-76
2022/10/21 12:42:09;;;;;;;13.30;7.03;;;16.10;99.90;;;;;;4967083;28;20049;-76
2022/10/21 12:44:36;;;;;;;13.32;6.32;;;16.10;99.90;;;;;;4960692;28;20501;-77